Time;durP1;ratioP1;P1;durP2;ratioP2;P2;SDS_P1;SDS_P2;PMS_P1;PMS_P2;Temp;Humidity;BMP_temperature;BMP_pressure;BME280_temperature;BME280_humidity;BME280_pressure;Samples;Min_cycle;Max_cycle;Signal;HPM_P1;HPM_P2
2023/03/11 00:00:40;;;;;;;3.22;0.50;;;;;;;-1.21;100.00;100607.38;5031409;28;20432;-87
2023/03/11 00:03:10;;;;;;;7.53;0.80;;;;;;;-1.29;100.00;100603.59;5031524;28;20025;-88
2023/03/11 00:05:38;;;;;;;4.72;0.88;;;;;;;-1.35;100.00;100614.81;5034029;28;20561;-87
2023/03/11 00:08:06;;;;;;;6.80;0.70;;;;;;;-1.41;100.00;100620.72;5032494;28;20036;-87
2023/03/11 00:10:37;;;;;;;10.13;1.10;;;;;;;-1.53;100.00;100609.41;5031761;28;20043;-87
2023/03/11 00:13:04;;;;;;;8.00;0.80;;;;;;;-1.58;100.00;100611.63;5032121;28;20032;-87
2023/03/11 00:15:30;;;;;;;5.47;1.00;;;;;;;-1.60;100.00;100613.59;5032970;28;20106;-87
2023/03/11 00:17:56;;;;;;;9.85;0.98;;;;;;;-1.61;100.00;100618.09;5031495;28;20026;-87
2023/03/11 00:20:30;;;;;;;9.55;1.13;;;;;;;-1.66;100.00;100614.19;5031409;28;20037;-87
2023/03/11 00:22:57;;;;;;;9.70;1.02;;;;;;;-1.71;100.00;100624.38;5032306;28;20120;-88
2023/03/11 00:25:27;;;;;;;4.60;1.45;;;;;;;-1.77;100.00;100618.66;5035010;28;20116;-87
2023/03/11 00:27:55;;;;;;;4.40;0.80;;;;;;;-1.84;100.00;100632.66;5035310;28;20029;-87
2023/03/11 00:30:24;;;;;;;9.65;1.27;;;;;;;-1.88;100.00;100637.41;5035329;28;20033;-87
2023/03/11 00:32:51;;;;;;;6.35;1.13;;;;;;;-1.95;100.00;100630.97;5035286;28;20053;-88
2023/03/11 00:35:20;;;;;;;5.60;0.90;;;;;;;-1.97;100.00;100640.91;5036243;28;20024;-87
2023/03/11 00:37:51;;;;;;;8.57;1.00;;;;;;;-2.03;100.00;100644.13;5035704;28;20042;-87
2023/03/11 00:40:18;;;;;;;5.80;0.80;;;;;;;-2.04;100.00;100645.94;5036616;28;20401;-87
2023/03/11 00:42:44;;;;;;;7.25;1.27;;;;;;;-2.05;100.00;100654.06;5035249;28;20538;-87
2023/03/11 00:45:14;;;;;;;2.85;0.70;;;;;;;-2.05;100.00;100657.56;5035140;28;20084;-87
2023/03/11 00:47:40;;;;;;;4.82;0.90;;;;;;;-2.06;100.00;100655.06;5034915;28;20048;-87
2023/03/11 00:50:06;;;;;;;13.53;1.10;;;;;;;-2.07;100.00;100656.84;5035656;28;20034;-87
2023/03/11 00:52:34;;;;;;;8.65;0.80;;;;;;;-2.09;100.00;100661.47;5035459;28;20132;-87
2023/03/11 00:55:00;;;;;;;4.03;0.60;;;;;;;-2.12;100.00;100659.94;5035584;28;20448;-87
2023/03/11 00:57:28;;;;;;;6.53;0.80;;;;;;;-2.19;100.00;100655.31;5034303;28;20053;-87
2023/03/11 00:59:54;;;;;;;7.15;0.60;;;;;;;-2.18;100.00;100662.31;5034252;28;20386;-87
2023/03/11 01:02:22;;;;;;;7.78;0.90;;;;;;;-2.17;100.00;100669.28;5034672;28;20029;-87
2023/03/11 01:04:55;;;;;;;7.45;0.90;;;;;;;-2.17;100.00;100680.78;5017899;28;20091;-86
2023/03/11 01:07:21;;;;;;;7.47;0.93;;;;;;;-2.15;100.00;100677.97;5036605;28;20107;-86
2023/03/11 01:09:46;;;;;;;6.05;0.80;;;;;;;-2.13;100.00;100681.34;5034431;28;20029;-86
2023/03/11 01:12:12;;;;;;;8.00;0.73;;;;;;;-2.05;100.00;100688.63;5034829;28;20037;-87
2023/03/11 01:14:38;;;;;;;11.10;1.23;;;;;;;-1.97;100.00;100694.94;5035405;28;20417;-87
2023/03/11 01:17:03;;;;;;;5.50;0.77;;;;;;;-1.94;100.00;100697.31;5034494;28;20472;-87
2023/03/11 01:19:28;;;;;;;5.53;1.20;;;;;;;-1.90;100.00;100691.75;5034338;28;20033;-86
2023/03/11 01:21:54;;;;;;;14.27;1.00;;;;;;;-1.89;100.00;100698.72;5034296;28;20033;-86
2023/03/11 01:24:19;;;;;;;5.60;1.00;;;;;;;-1.90;100.00;100697.06;5034086;28;20029;-87
2023/03/11 01:26:45;;;;;;;6.68;1.00;;;;;;;-1.87;100.00;100686.97;5034995;28;20040;-86
2023/03/11 01:29:10;;;;;;;9.17;1.10;;;;;;;-1.83;100.00;100690.19;5035011;28;20041;-87
2023/03/11 01:31:38;;;;;;;8.63;1.40;;;;;;;-1.85;100.00;100698.31;5033901;28;20129;-87
2023/03/11 01:34:11;;;;;;;7.50;1.05;;;;;;;-1.85;100.00;100700.13;5017644;28;20034;-86
2023/03/11 01:36:39;;;;;;;8.77;0.82;;;;;;;-1.86;100.00;100698.44;5034063;28;20477;-86
2023/03/11 01:39:07;;;;;;;10.25;0.90;;;;;;;-1.87;100.00;100696.78;5034337;28;20476;-86
2023/03/11 01:41:33;;;;;;;6.83;1.27;;;;;;;-1.89;100.00;100704.03;5035318;28;20477;-87
2023/03/11 01:43:58;;;;;;;10.35;1.30;;;;;;;-1.94;100.00;100702.63;5033585;28;20280;-87
2023/03/11 01:46:26;;;;;;;4.17;0.80;;;;;;;-1.98;100.00;100700.38;5033845;28;20416;-87
2023/03/11 01:48:57;;;;;;;4.03;0.60;;;;;;;-2.00;100.00;100705.84;5034334;28;20040;-87
2023/03/11 01:51:29;;;;;;;5.00;0.70;;;;;;;-2.01;100.00;100706.84;5033597;28;20030;-87
2023/03/11 01:53:59;;;;;;;7.03;1.03;;;;;;;-2.05;100.00;100702.78;5033299;28;20384;-87
2023/03/11 01:56:24;;;;;;;8.25;1.25;;;;;;;-2.06;100.00;100705.56;5034864;28;20461;-87
2023/03/11 01:58:52;;;;;;;3.95;0.57;;;;;;;-2.09;100.00;100704.00;5033168;28;20052;-87
2023/03/11 02:01:22;;;;;;;6.57;0.80;;;;;;;-2.08;100.00;100704.84;5033573;28;20374;-86
2023/03/11 02:03:48;;;;;;;8.23;1.20;;;;;;;-2.10;100.00;100704.16;5035098;28;20029;-87
2023/03/11 02:06:19;;;;;;;4.05;0.63;;;;;;;-2.10;100.00;100706.81;5033502;28;20389;-87
2023/03/11 02:08:45;;;;;;;11.25;0.98;;;;;;;-2.12;100.00;100697.16;5033753;28;20037;-87
2023/03/11 02:11:23;;;;;;;6.93;0.65;;;;;;;-2.15;100.00;100696.59;5033435;28;20033;-87
2023/03/11 02:13:52;;;;;;;7.17;0.87;;;;;;;-2.17;100.00;100696.72;5034717;28;20035;-87
2023/03/11 02:16:20;;;;;;;10.10;1.42;;;;;;;-2.13;100.00;100705.25;5034093;28;20037;-87
2023/03/11 02:18:46;;;;;;;10.27;1.58;;;;;;;-2.09;100.00;100703.19;5033083;28;20350;-87
2023/03/11 02:21:30;;;;;;;9.13;1.03;;;;;;;-2.06;100.00;100706.41;5033101;28;20551;-87
2023/03/11 02:24:11;;;;;;;7.95;1.15;;;;;;;-2.01;100.00;100712.16;5033579;28;20037;-87
2023/03/11 02:26:54;;;;;;;4.65;0.65;;;;;;;-1.96;100.00;100719.72;5033192;28;20179;-87
2023/03/11 02:29:21;;;;;;;9.15;0.85;;;;;;;-1.95;100.00;100710.75;5018758;28;20041;-87
2023/03/11 02:31:48;;;;;;;11.00;1.27;;;;;;;-1.94;100.00;100709.78;5033325;28;20138;-87
2023/03/11 02:34:38;;;;;;;11.60;2.00;;;;;;;-1.91;100.00;100714.00;5034140;28;20291;-86
2023/03/11 02:37:06;;;;;;;5.50;0.82;;;;;;;-1.96;100.00;100706.44;5034534;28;20021;-87
2023/03/11 02:39:33;;;;;;;10.52;1.10;;;;;;;-1.97;100.00;100710.06;5032935;28;20033;-86
2023/03/11 02:42:01;;;;;;;3.92;0.70;;;;;;;-2.04;100.00;100707.09;5032717;28;20416;-86
2023/03/11 02:44:29;;;;;;;5.40;1.00;;;;;;;-2.07;100.00;100704.69;5034243;28;20033;-87
2023/03/11 02:46:55;;;;;;;6.65;0.90;;;;;;;-2.10;100.00;100704.16;5034398;28;20295;-86
2023/03/11 02:49:22;;;;;;;5.85;1.13;;;;;;;-2.18;100.00;100710.16;5033097;28;20457;-86
2023/03/11 02:51:47;;;;;;;7.72;0.93;;;;;;;-2.24;100.00;100714.19;5032684;28;20366;-86
2023/03/11 02:54:13;;;;;;;5.13;0.80;;;;;;;-2.27;100.00;100705.63;5032888;28;20163;-86
2023/03/11 02:56:38;;;;;;;6.03;1.13;;;;;;;-2.33;100.00;100699.91;5033083;28;20057;-87
2023/03/11 02:59:04;;;;;;;11.25;1.27;;;;;;;-2.39;100.00;100700.44;5032477;28;20072;-87
2023/03/11 03:01:35;;;;;;;11.73;1.05;;;;;;;-2.44;100.00;100701.81;5032377;28;20044;-86
2023/03/11 03:04:00;;;;;;;7.03;1.20;;;;;;;-2.48;100.00;100699.44;5032604;28;20034;-86
2023/03/11 03:06:29;;;;;;;13.87;1.30;;;;;;;-2.44;100.00;100707.13;5032219;28;20032;-86
2023/03/11 03:08:55;;;;;;;10.93;1.08;;;;;;;-2.43;100.00;100706.16;5033572;28;20033;-86
2023/03/11 03:11:20;;;;;;;5.80;1.10;;;;;;;-2.41;100.00;100706.84;5033549;28;20436;-86
2023/03/11 03:13:46;;;;;;;9.73;0.82;;;;;;;-2.41;100.00;100701.53;5032480;28;20064;-86
2023/03/11 03:16:12;;;;;;;12.90;1.20;;;;;;;-2.41;100.00;100720.13;5032194;28;20036;-86
2023/03/11 03:18:37;;;;;;;8.93;1.10;;;;;;;-2.45;100.00;100722.25;5033508;28;20079;-87
2023/03/11 03:21:06;;;;;;;4.90;1.00;;;;;;;-2.52;100.00;100734.38;5032275;28;20030;-86
2023/03/11 03:23:34;;;;;;;4.15;0.70;;;;;;;-2.53;100.00;100738.81;5032069;28;20040;-87
2023/03/11 03:26:11;;;;;;;10.90;1.27;;;;;;;-2.56;100.00;100736.44;5032765;28;20124;-86
2023/03/11 03:28:36;;;;;;;7.47;1.00;;;;;;;-2.60;100.00;100742.97;5033736;28;20037;-86
2023/03/11 03:31:06;;;;;;;5.88;0.82;;;;;;;-2.65;100.00;100745.22;5032153;28;20290;-86
2023/03/11 03:33:32;;;;;;;9.53;1.30;;;;;;;-2.69;100.00;100755.28;5032233;28;20496;-85
2023/03/11 03:35:57;;;;;;;6.03;1.02;;;;;;;-2.72;100.00;100752.00;5032075;28;20338;-86
2023/03/11 03:38:29;;;;;;;7.03;0.80;;;;;;;-2.74;100.00;100760.13;5033564;28;20393;-87
2023/03/11 03:40:54;;;;;;;5.32;0.90;;;;;;;-2.76;100.00;100761.22;5017193;28;20045;-86
2023/03/11 03:43:24;;;;;;;9.87;0.90;;;;;;;-2.76;100.00;100766.53;5033442;28;20037;-86
2023/03/11 03:46:10;;;;;;;15.68;1.13;;;;;;;-2.80;100.00;100765.97;5032241;28;20477;-86
2023/03/11 03:48:38;;;;;;;8.23;0.90;;;;;;;-2.83;100.00;100763.56;5015800;28;20021;-86
2023/03/11 03:51:10;;;;;;;2.72;0.75;;;;;;;-2.85;100.00;100769.00;5033814;28;20033;-85
2023/03/11 03:53:38;;;;;;;5.60;0.80;;;;;;;-2.86;100.00;100772.63;5032213;28;20030;-86
2023/03/11 03:56:05;;;;;;;12.70;1.27;;;;;;;-2.85;100.00;100776.97;5033416;28;20367;-86
2023/03/11 03:58:31;;;;;;;6.80;1.10;;;;;;;-2.83;100.00;100782.97;5032589;28;20081;-86
2023/03/11 04:00:58;;;;;;;11.70;1.10;;;;;;;-2.75;100.00;100779.66;5036546;28;20064;-85
2023/03/11 04:03:29;;;;;;;9.85;1.23;;;;;;;-2.69;100.00;100781.84;5035965;28;20140;-86
2023/03/11 04:06:08;;;;;;;5.40;1.00;;;;;;;-2.65;100.00;100780.56;5035804;28;20029;-86
2023/03/11 04:08:35;;;;;;;4.53;1.00;;;;;;;-2.58;100.00;100780.03;5037223;28;20021;-86
2023/03/11 04:11:00;;;;;;;10.75;1.30;;;;;;;-2.57;100.00;100779.94;5037230;28;20033;-85
2023/03/11 04:13:31;;;;;;;6.03;1.00;;;;;;;-2.57;100.00;100784.38;5035807;28;20037;-86
2023/03/11 04:16:01;;;;;;;6.72;1.45;;;;;;;-2.58;100.00;100782.69;5035747;28;20112;-86
2023/03/11 04:18:27;;;;;;;7.90;1.17;;;;;;;-2.56;100.00;100788.75;5036094;28;20044;-86
2023/03/11 04:20:52;;;;;;;4.55;0.73;;;;;;;-2.58;100.00;100782.69;5035485;28;20284;-85
2023/03/11 04:23:17;;;;;;;4.63;0.70;;;;;;;-2.57;100.00;100787.03;5036882;28;20492;-85
2023/03/11 04:25:43;;;;;;;8.30;0.70;;;;;;;-2.61;100.00;100781.16;5036847;28;20049;-86
2023/03/11 04:28:08;;;;;;;6.10;1.10;;;;;;;-2.69;100.00;100781.84;5018831;28;20033;-84
2023/03/11 04:30:44;;;;;;;7.85;1.10;;;;;;;-2.72;100.00;100797.16;5019770;28;20276;-85
2023/03/11 04:33:09;;;;;;;7.87;0.90;;;;;;;-2.77;100.00;100799.38;5035807;28;20483;-85
2023/03/11 04:35:37;;;;;;;5.88;1.00;;;;;;;-2.79;100.00;100796.88;5037001;28;20299;-85
2023/03/11 04:38:03;;;;;;;7.73;1.20;;;;;;;-2.82;100.00;100797.94;5036423;28;20491;-86
2023/03/11 04:40:28;;;;;;;5.65;0.93;;;;;;;-2.87;100.00;100801.97;5035147;28;20300;-85
2023/03/11 04:42:54;;;;;;;9.17;0.97;;;;;;;-2.92;100.00;100796.19;5018639;28;20060;-86
2023/03/11 04:45:19;;;;;;;7.83;1.07;;;;;;;-2.94;100.00;100792.81;5018693;28;20044;-86
2023/03/11 04:47:49;;;;;;;6.40;0.90;;;;;;;-2.94;100.00;100792.81;5034770;28;20120;-86
2023/03/11 04:50:15;;;;;;;5.95;1.13;;;;;;;-2.97;100.00;100799.22;5034607;28;20029;-86
2023/03/11 04:52:43;;;;;;;8.65;1.52;;;;;;;-3.02;100.00;100793.47;5036603;28;20029;-86
2023/03/11 04:55:09;;;;;;;9.80;1.08;;;;;;;-3.02;100.00;100794.31;5035949;28;20403;-86
2023/03/11 04:57:35;;;;;;;3.45;1.00;;;;;;;-3.03;100.00;100795.31;5036097;28;20077;-86
2023/03/11 05:00:03;;;;;;;15.90;1.63;;;;;;;-3.04;100.00;100790.94;5034354;28;20113;-86
2023/03/11 05:02:37;;;;;;;7.57;1.48;;;;;;;-3.07;100.00;100799.19;5035184;28;20056;-85
2023/03/11 05:05:06;;;;;;;7.70;1.25;;;;;;;-3.10;100.00;100799.44;5034504;28;20507;-85
2023/03/11 05:07:33;;;;;;;7.22;1.35;;;;;;;-3.12;100.00;100793.38;5034492;28;20083;-86
2023/03/11 05:09:59;;;;;;;6.77;1.33;;;;;;;-3.15;100.00;100808.75;5018902;28;20048;-86
2023/03/11 05:12:25;;;;;;;6.00;1.42;;;;;;;-3.22;100.00;100805.75;5034640;28;20268;-86
2023/03/11 05:14:50;;;;;;;8.13;0.98;;;;;;;-2.97;100.00;100806.38;5035925;28;20120;-86
2023/03/11 05:17:18;;;;;;;4.20;1.10;;;;;;;-2.74;100.00;100812.41;5034531;28;20449;-86
2023/03/11 05:19:43;;;;;;;9.90;1.40;;;;;;;-2.74;100.00;100812.41;5034722;28;20035;-86
2023/03/11 05:22:09;;;;;;;8.13;1.10;;;;;;;-2.76;100.00;100819.63;5034050;28;20026;-86
2023/03/11 05:24:35;;;;;;;7.10;1.15;;;;;;;-2.78;100.00;100816.28;5035437;28;20029;-87
2023/03/11 05:27:01;;;;;;;2.13;0.90;;;;;;;-2.85;100.00;100814.16;5034248;28;20037;-87
2023/03/11 05:29:27;;;;;;;7.53;1.15;;;;;;;-2.90;100.00;100821.66;5033957;28;20041;-86
2023/03/11 05:31:54;;;;;;;6.28;1.15;;;;;;;-2.89;100.00;100827.81;5035436;28;20117;-86
2023/03/11 05:34:41;;;;;;;14.45;2.28;;;;;;;-2.95;100.00;100834.47;5022361;28;20124;-87
2023/03/11 05:37:06;;;;;;;8.90;1.70;;;;;;;-3.04;100.00;100838.75;5018455;28;20057;-87
2023/03/11 05:39:36;;;;;;;11.68;1.25;;;;;;;-3.08;100.00;100844.44;5017845;28;20080;-86
2023/03/11 05:42:07;;;;;;;8.10;1.27;;;;;;;-3.14;100.00;100845.78;5034239;28;20026;-86
2023/03/11 05:44:40;;;;;;;7.93;1.45;;;;;;;-3.20;100.00;100841.81;5033748;28;20037;-87
2023/03/11 05:47:06;;;;;;;6.50;1.27;;;;;;;-3.23;100.00;100833.28;5002797;28;20045;-87
2023/03/11 05:49:34;;;;;;;6.93;1.27;;;;;;;-3.28;100.00;100846.06;5032758;28;20099;-85
2023/03/11 05:52:10;;;;;;;10.15;1.35;;;;;;;-3.33;100.00;100846.44;5017618;28;20477;-87
2023/03/11 05:54:36;;;;;;;6.72;1.10;;;;;;;-3.43;100.00;100851.63;5017641;28;20079;-87
2023/03/11 05:57:01;;;;;;;6.70;1.60;;;;;;;-3.46;100.00;100851.06;5033330;28;20120;-87
2023/03/11 05:59:27;;;;;;;11.83;1.80;;;;;;;-3.47;100.00;100857.31;5034791;28;20049;-87
2023/03/11 06:01:55;;;;;;;8.65;1.50;;;;;;;-3.52;100.00;100852.38;5016656;28;20033;-87
2023/03/11 06:04:20;;;;;;;10.17;1.47;;;;;;;-3.60;100.00;100855.66;5017122;28;20065;-87
2023/03/11 06:06:46;;;;;;;10.48;1.48;;;;;;;-3.64;100.00;100856.88;5016819;28;20138;-87
2023/03/11 06:09:17;;;;;;;5.53;1.10;;;;;;;-3.67;100.00;100854.47;5033377;28;20060;-87
2023/03/11 06:11:42;;;;;;;5.57;1.60;;;;;;;-3.66;100.00;100863.25;5034794;28;20116;-87
2023/03/11 06:14:13;;;;;;;4.47;1.10;;;;;;;-3.69;100.00;100864.38;5034631;28;20100;-87
2023/03/11 06:16:41;;;;;;;6.10;1.50;;;;;;;-3.70;100.00;100865.31;5033210;28;20041;-87
2023/03/11 06:19:09;;;;;;;7.90;1.23;;;;;;;-3.73;100.00;100869.06;5033504;28;20021;-87
2023/03/11 06:21:34;;;;;;;6.13;1.50;;;;;;;-3.72;100.00;100880.50;5032732;28;20296;-86
2023/03/11 06:24:00;;;;;;;6.00;1.10;;;;;;;-3.71;100.00;100882.19;5033130;28;20473;-86
2023/03/11 06:26:28;;;;;;;10.50;2.15;;;;;;;-3.72;100.00;100877.84;5033598;28;20337;-86
2023/03/11 06:28:54;;;;;;;5.85;1.20;;;;;;;-3.72;100.00;100883.16;5000131;28;20073;-87
2023/03/11 06:31:23;;;;;;;7.63;1.13;;;;;;;-3.71;100.00;100890.16;5033108;28;20060;-87
2023/03/11 06:33:48;;;;;;;9.07;1.50;;;;;;;-3.72;100.00;100891.97;5033184;28;20025;-86
2023/03/11 06:36:16;;;;;;;4.88;1.35;;;;;;;-3.69;100.00;100885.59;5034507;28;20479;-87
2023/03/11 06:38:42;;;;;;;4.20;1.00;;;;;;;-3.64;100.00;100895.81;5033075;28;20107;-87
2023/03/11 06:41:07;;;;;;;6.80;1.33;;;;;;;-3.61;100.00;100896.41;5032965;28;20025;-87
2023/03/11 06:43:34;;;;;;;7.07;1.42;;;;;;;-3.60;100.00;100895.44;5032648;28;20075;-87
2023/03/11 06:46:06;;;;;;;7.43;1.27;;;;;;;-3.55;100.00;100905.69;5034403;28;20029;-87
2023/03/11 06:48:32;;;;;;;12.23;2.05;;;;;;;-3.52;100.00;100906.28;5033207;28;20276;-87
2023/03/11 06:51:00;;;;;;;10.75;1.67;;;;;;;-3.49;100.00;100915.81;5032886;28;20120;-86
2023/03/11 06:53:35;;;;;;;4.93;1.38;;;;;;;-3.39;100.00;100921.22;5032561;28;20143;-87
2023/03/11 06:56:06;;;;;;;16.10;1.70;;;;;;;-3.38;100.00;100923.75;5032480;28;20021;-86
2023/03/11 06:58:43;;;;;;;10.57;1.40;;;;;;;-3.35;100.00;100923.50;5032285;28;20049;-86
2023/03/11 07:01:29;;;;;;;9.05;1.50;;;;;;;-3.31;100.00;100931.22;5032961;28;20045;-89
2023/03/11 07:03:54;;;;;;;6.50;1.60;;;;;;;-3.25;100.00;100938.69;5032768;28;20476;-85
2023/03/11 07:06:26;;;;;;;7.53;1.50;;;;;;;-3.24;100.00;100946.53;5033631;28;20276;-85
2023/03/11 07:08:56;;;;;;;8.67;1.77;;;;;;;-3.17;100.00;100949.53;5032225;28;20116;-85
2023/03/11 07:11:29;;;;;;;5.82;1.63;;;;;;;-3.07;100.00;100952.28;5015645;28;20281;-86
2023/03/11 07:13:55;;;;;;;7.97;1.60;;;;;;;-3.00;100.00;100956.13;5032180;28;20079;-86
2023/03/11 07:16:28;;;;;;;6.20;1.63;;;;;;;-2.96;100.00;100952.25;5016376;28;20041;-85
2023/03/11 07:18:57;;;;;;;8.27;1.70;;;;;;;-2.92;100.00;100948.41;5033509;28;20029;-85
2023/03/11 07:21:23;;;;;;;7.90;1.30;;;;;;;-2.89;100.00;100949.97;5033279;28;20066;-85
2023/03/11 07:23:54;;;;;;;4.57;1.60;;;;;;;-2.77;100.00;100962.22;5033269;28;20025;-85
2023/03/11 07:26:19;;;;;;;9.83;1.50;;;;;;;-2.71;100.00;100958.22;5032229;28;20029;-84
2023/03/11 07:28:53;;;;;;;4.68;1.55;;;;;;;-2.69;100.00;100959.78;5032261;28;20278;-85
2023/03/11 07:31:22;;;;;;;5.68;1.50;;;;;;;-2.56;100.00;100966.75;5033101;28;20026;-85
2023/03/11 07:33:50;;;;;;;4.97;1.30;;;;;;;-2.50;100.00;100964.41;5034791;28;20027;-85
2023/03/11 07:36:21;;;;;;;5.43;1.25;;;;;;;-2.44;100.00;100970.19;5035848;28;20059;-85
2023/03/11 07:38:53;;;;;;;7.87;1.60;;;;;;;-2.31;100.00;100974.34;5035958;28;20030;-85
2023/03/11 07:41:21;;;;;;;6.63;1.38;;;;;;;-2.21;100.00;100962.97;5035634;28;20030;-85
2023/03/11 07:43:46;;;;;;;5.68;1.58;;;;;;;-2.10;100.00;100970.84;5036072;28;20037;-85
2023/03/11 07:46:33;;;;;;;7.60;1.50;;;;;;;-2.07;100.00;100967.94;5035891;28;20036;-85
2023/03/11 07:49:07;;;;;;;11.52;2.10;;;;;;;-2.03;100.00;100968.53;5037524;28;20264;-85
2023/03/11 07:51:34;;;;;;;9.88;2.13;;;;;;;-1.92;100.00;100975.59;5036518;28;20475;-85
2023/03/11 07:54:00;;;;;;;9.00;2.60;;;;;;;-1.87;100.00;100984.84;5036247;28;20033;-85
2023/03/11 07:56:31;;;;;;;8.52;2.38;;;;;;;-1.83;100.00;100991.63;5036083;28;20456;-85
2023/03/11 07:58:58;;;;;;;7.47;1.90;;;;;;;-1.76;100.00;100991.91;5036175;28;20100;-86
2023/03/11 08:01:29;;;;;;;9.82;1.60;;;;;;;-1.66;100.00;100992.81;5036886;28;20719;-85
2023/03/11 08:03:57;;;;;;;4.35;1.70;;;;;;;-1.59;100.00;100993.13;5037653;28;20033;-86
2023/03/11 08:06:30;;;;;;;12.98;2.17;;;;;;;-1.50;100.00;100988.84;5036116;28;20034;-85
2023/03/11 08:09:00;;;;;;;8.30;1.77;;;;;;;-1.43;100.00;100990.81;5037680;28;20061;-86
2023/03/11 08:11:29;;;;;;;6.93;1.60;;;;;;;-1.35;100.00;100992.81;5037230;28;20520;-85
2023/03/11 08:13:56;;;;;;;9.70;1.40;;;;;;;-1.31;100.00;100993.41;5035703;28;20275;-86
2023/03/11 08:16:22;;;;;;;4.35;1.88;;;;;;;-1.24;100.00;100997.19;5037636;28;20026;-85
2023/03/11 08:18:51;;;;;;;6.80;1.25;;;;;;;-1.16;100.00;101008.00;5018926;28;20034;-85
2023/03/11 08:21:21;;;;;;;10.18;1.85;;;;;;;-1.07;100.00;100999.22;5035149;28;20053;-85
2023/03/11 08:23:47;;;;;;;6.77;1.47;;;;;;;-0.92;100.00;101002.31;5036403;28;20091;-85
2023/03/11 08:26:16;;;;;;;5.20;1.50;;;;;;;-0.77;100.00;101000.16;5018900;28;20299;-85
2023/03/11 08:28:42;;;;;;;6.10;1.40;;;;;;;-0.65;100.00;101000.84;5035510;28;20112;-84
2023/03/11 08:31:13;;;;;;;8.07;1.38;;;;;;;-0.52;100.00;100995.25;5035149;28;20121;-85
2023/03/11 08:33:39;;;;;;;7.27;1.70;;;;;;;-0.33;100.00;101005.06;5036323;28;20152;-84
2023/03/11 08:36:05;;;;;;;3.90;1.17;;;;;;;-0.11;100.00;101009.28;5036218;28;20367;-84
2023/03/11 08:38:30;;;;;;;5.07;1.30;;;;;;;0.10;100.00;101014.44;5002398;28;20120;-85
2023/03/11 08:40:56;;;;;;;8.23;1.83;;;;;;;0.31;100.00;101000.94;5035705;28;20061;-85
2023/03/11 08:43:21;;;;;;;10.33;1.53;;;;;;;0.55;100.00;101014.75;5036045;28;20030;-85
2023/03/11 08:45:47;;;;;;;4.32;0.93;;;;;;;0.80;100.00;101019.44;5034317;28;20526;-84
2023/03/11 08:48:12;;;;;;;9.17;0.90;;;;;;;1.04;100.00;101015.41;5034830;28;20040;-85
2023/03/11 08:50:43;;;;;;;4.47;1.00;;;;;;;1.22;100.00;101023.44;5036002;28;20026;-85
2023/03/11 08:53:12;;;;;;;10.40;1.38;;;;;;;1.34;96.65;101024.06;5035883;28;20024;-85
2023/03/11 08:55:37;;;;;;;5.43;1.02;;;;;;;1.45;96.59;101025.69;5035838;28;20469;-85
2023/03/11 08:58:03;;;;;;;5.43;1.00;;;;;;;1.56;96.03;101020.13;5035994;28;20033;-85
2023/03/11 09:00:29;;;;;;;10.33;0.60;;;;;;;1.68;96.39;101034.13;5034156;28;20485;-85
2023/03/11 09:02:56;;;;;;;7.50;1.02;;;;;;;1.73;94.41;101034.50;5034900;28;20072;-86
2023/03/11 09:05:24;;;;;;;7.50;0.70;;;;;;;1.78;93.86;101042.06;5034637;28;20030;-85
2023/03/11 09:07:50;;;;;;;5.57;0.90;;;;;;;1.84;92.07;101034.25;5034906;28;20033;-85
2023/03/11 09:10:16;;;;;;;5.63;0.60;;;;;;;1.95;90.40;101029.66;5035705;28;20388;-86
2023/03/11 09:12:42;;;;;;;4.23;0.40;;;;;;;2.05;89.16;101025.06;5035564;28;20148;-85
2023/03/11 09:15:08;;;;;;;5.95;0.43;;;;;;;2.17;86.47;101034.56;5034438;28;20033;-85
2023/03/11 09:17:34;;;;;;;6.73;0.50;;;;;;;2.19;86.36;101027.19;5034242;28;20041;-85
2023/03/11 09:19:59;;;;;;;2.20;0.40;;;;;;;2.24;85.76;101032.06;5034403;28;20041;-85
2023/03/11 09:22:30;;;;;;;4.67;0.50;;;;;;;2.24;85.07;101038.28;5033957;28;20029;-85
2023/03/11 09:24:56;;;;;;;4.82;0.43;;;;;;;2.24;84.06;101045.47;5018698;28;20033;-86
2023/03/11 09:27:22;;;;;;;2.05;0.30;;;;;;;2.25;81.60;101039.94;5035243;28;20025;-86
2023/03/11 09:29:47;;;;;;;1.98;0.50;;;;;;;2.35;84.44;101050.56;5034158;28;20029;-86
2023/03/11 09:32:17;;;;;;;2.83;0.33;;;;;;;2.45;83.71;101047.78;5034222;28;20025;-86
2023/03/11 09:34:42;;;;;;;6.93;0.38;;;;;;;2.55;80.65;101045.84;5034237;28;20030;-86
2023/03/11 09:37:15;;;;;;;6.43;0.40;;;;;;;2.69;81.67;101057.81;5033556;28;20036;-87
2023/03/11 09:39:46;;;;;;;4.65;0.35;;;;;;;2.78;78.58;101051.50;5034171;28;20029;-86
2023/03/11 09:42:57;;;;;;;3.72;0.30;;;;;;;3.06;84.26;101042.44;5034409;28;20057;-86
2023/03/11 09:45:30;;;;;;;4.75;0.60;;;;;;;3.41;80.75;101046.75;5022398;28;20053;-87
2023/03/11 09:48:06;;;;;;;3.60;0.40;;;;;;;3.82;80.67;101045.97;5018274;28;20420;-87
2023/03/11 09:50:37;;;;;;;3.40;0.30;;;;;;;4.20;77.22;101046.31;5034481;28;20026;-86
2023/03/11 09:53:13;;;;;;;5.93;0.50;;;;;;;4.62;76.37;101057.84;5033757;28;20366;-87
2023/03/11 09:55:43;;;;;;;2.00;0.40;;;;;;;5.06;74.77;101054.69;5033921;28;20029;-86
2023/03/11 09:58:11;;;;;;;4.60;0.22;;;;;;;5.47;74.66;101048.31;5033570;28;20448;-87
2023/03/11 10:00:39;;;;;;;3.85;0.60;;;;;;;5.72;68.00;101041.75;5034296;28;20050;-86
2023/03/11 10:03:32;;;;;;;2.38;0.73;;;;;;;5.84;70.91;101044.03;5033552;28;20033;-87
2023/03/11 10:06:14;;;;;;;4.40;0.30;;;;;;;6.17;72.28;101035.72;5034826;28;20025;-86
2023/03/11 10:09:02;;;;;;;7.20;0.40;;;;;;;6.17;66.07;101031.19;5034534;28;20057;-86
2023/03/11 10:11:50;;;;;;;2.70;0.32;;;;;;;6.18;74.45;101032.00;5035063;28;20108;-86
2023/03/11 10:14:55;;;;;;;3.05;0.40;;;;;;;6.25;69.83;101041.88;5034015;28;20152;-86
2023/03/11 10:17:38;;;;;;;4.18;0.50;;;;;;;6.31;70.59;101045.69;4964197;28;20046;-86
2023/03/11 10:20:51;;;;;;;2.33;0.60;;;;;;;6.37;75.62;101044.94;5033316;28;20029;-86
2023/03/11 10:23:32;;;;;;;5.07;0.43;;;;;;;6.43;71.24;101051.47;5021728;28;20046;-86
2023/03/11 10:26:24;;;;;;;3.72;0.50;;;;;;;6.59;70.57;101056.69;5032840;28;20556;-86
2023/03/11 10:29:15;;;;;;;7.53;0.55;;;;;;;6.72;70.78;101055.22;5034235;28;20381;-87
2023/03/11 10:31:56;;;;;;;10.98;0.60;;;;;;;6.73;63.31;101059.59;5021463;28;20041;-87
2023/03/11 10:34:37;;;;;;;2.05;0.30;;;;;;;6.67;67.73;101061.16;5033309;28;20030;-86
2023/03/11 10:37:33;;;;;;;1.42;0.30;;;;;;;6.71;66.83;101065.19;5033945;28;20030;-87
2023/03/11 10:40:14;;;;;;;3.58;0.50;;;;;;;6.73;62.66;101063.16;5033830;28;20380;-87
2023/03/11 10:42:45;;;;;;;2.50;0.32;;;;;;;7.08;60.84;101068.81;5032704;28;20378;-86
2023/03/11 10:45:15;;;;;;;1.58;0.30;;;;;;;7.46;60.09;101060.56;5033221;28;20029;-86
2023/03/11 10:47:43;;;;;;;2.85;0.38;;;;;;;7.46;59.44;101068.69;5033688;28;20018;-86
2023/03/11 10:50:18;;;;;;;5.90;0.70;;;;;;;7.52;62.85;101067.09;5032753;28;20079;-87
2023/03/11 10:53:07;;;;;;;3.78;0.40;;;;;;;7.66;64.79;101065.34;5032563;28;20021;-87
2023/03/11 10:55:33;;;;;;;6.18;0.40;;;;;;;7.78;59.78;101060.28;5032877;28;20033;-86
2023/03/11 10:58:10;;;;;;;2.20;0.50;;;;;;;7.93;60.89;101066.50;5032390;28;20029;-86
2023/03/11 11:00:36;;;;;;;7.03;0.85;;;;;;;7.96;58.74;101062.53;5032071;28;20042;-86
2023/03/11 11:03:03;;;;;;;3.93;0.40;;;;;;;8.14;57.46;101056.72;5032091;28;20375;-87
2023/03/11 11:05:35;;;;;;;1.65;0.40;;;;;;;8.33;57.60;101060.63;5032219;28;20112;-87
2023/03/11 11:08:23;;;;;;;5.32;0.50;;;;;;;8.71;64.08;101055.72;5032492;28;20064;-87
2023/03/11 11:10:56;;;;;;;2.83;0.40;;;;;;;8.73;54.67;101050.94;5016125;28;20044;-87
2023/03/11 11:13:30;;;;;;;3.43;0.60;;;;;;;8.75;56.21;101058.88;5034380;28;20064;-87
2023/03/11 11:16:01;;;;;;;2.67;0.30;;;;;;;9.08;55.94;101059.06;5032606;28;20045;-86
2023/03/11 11:18:41;;;;;;;1.95;0.45;;;;;;;9.37;56.73;101057.09;5032582;28;20042;-86
2023/03/11 11:21:25;;;;;;;5.53;0.63;;;;;;;9.00;55.56;101064.63;5033691;28;20057;-88
2023/03/11 11:24:03;;;;;;;4.13;0.30;;;;;;;8.61;55.37;101055.25;5032284;28;20544;-88
2023/03/11 11:26:28;;;;;;;5.43;0.50;;;;;;;8.42;51.74;101068.38;5032435;28;20025;-88
2023/03/11 11:29:20;;;;;;;3.70;0.40;;;;;;;8.98;62.22;101071.31;5033748;28;20025;-87
2023/03/11 11:31:49;;;;;;;1.85;0.30;;;;;;;10.04;52.58;101051.00;5027519;28;20041;-88